Time;durP1;ratioP1;P1;durP2;ratioP2;P2;SDS_P1;SDS_P2;PMS_P1;PMS_P2;Temp;Humidity;BMP_temperature;BMP_pressure;BME280_temperature;BME280_humidity;BME280_pressure;Samples;Min_cycle;Max_cycle;Signal;HPM_P1;HPM_P2
2023/01/02 00:02:09;;;;;;;;;;;9.90;99.90;;;;;;5064878;28;20003;-85
2023/01/02 00:04:35;;;;;;;;;;;9.90;99.90;;;;;;5071324;28;19938;-85
2023/01/02 00:07:00;;;;;;;;;;;9.90;99.90;;;;;;5069236;28;20538;-84
2023/01/02 00:09:26;;;;;;;;;;;9.90;99.90;;;;;;5085904;28;19927;-84
2023/01/02 00:11:51;;;;;;;;;;;9.90;99.90;;;;;;5085319;28;20304;-85
2023/01/02 00:14:17;;;;;;;;;;;9.90;99.90;;;;;;5068779;28;19947;-84
2023/01/02 00:16:42;;;;;;;;;;;10.00;99.90;;;;;;5068609;28;19924;-85
2023/01/02 00:19:08;;;;;;;;;;;10.00;99.90;;;;;;5067010;28;20383;-84
2023/01/02 00:21:33;;;;;;;;;;;10.00;99.90;;;;;;5084819;28;19927;-85
2023/01/02 00:23:59;;;;;;;;;;;10.00;99.90;;;;;;5098736;28;19920;-84
2023/01/02 00:26:25;;;;;;;;;;;10.00;99.90;;;;;;5082194;28;20129;-85
2023/01/02 00:28:50;;;;;;;;;;;10.10;99.90;;;;;;5072252;28;19931;-84
2023/01/02 00:31:16;;;;;;;;;;;10.10;99.90;;;;;;5051638;28;19921;-84
2023/01/02 00:33:42;;;;;;;;;;;10.10;99.90;;;;;;5072385;28;20337;-85
2023/01/02 00:36:11;;;;;;;;;;;10.10;99.90;;;;;;5068567;28;19920;-85
2023/01/02 00:38:38;;;;;;;;;;;10.10;99.90;;;;;;5082079;28;20359;-84
2023/01/02 00:41:03;;;;;;;;;;;10.10;99.90;;;;;;5080904;28;19921;-85
2023/01/02 00:43:29;;;;;;;;;;;10.10;99.90;;;;;;5073324;28;19996;-84
2023/01/02 00:45:55;;;;;;;;;;;10.10;99.90;;;;;;5085739;28;19931;-84
2023/01/02 00:48:21;;;;;;;;;;;10.20;99.90;;;;;;5088346;28;19928;-85
2023/01/02 00:50:47;;;;;;;;;;;10.20;99.90;;;;;;5057471;28;19920;-85
2023/01/02 00:53:13;;;;;;;;;;;10.10;99.90;;;;;;5086926;28;20358;-85
2023/01/02 00:55:38;;;;;;;;;;;10.20;99.90;;;;;;5088940;28;19927;-84
2023/01/02 00:58:04;;;;;;;;;;;10.20;99.90;;;;;;5085201;28;19931;-85
2023/01/02 01:00:29;;;;;;;;;;;10.20;99.90;;;;;;5073780;28;20452;-85
2023/01/02 01:02:55;;;;;;;;;;;10.30;99.90;;;;;;5074779;28;19934;-85
2023/01/02 01:05:21;;;;;;;;;;;10.30;99.90;;;;;;5074989;28;19931;-84
2023/01/02 01:07:47;;;;;;;;;;;10.30;99.90;;;;;;5056519;28;19920;-84
2023/01/02 01:10:12;;;;;;;;;;;10.30;99.90;;;;;;5058260;28;19927;-85
2023/01/02 01:12:41;;;;;;;;;;;10.30;99.90;;;;;;5056911;28;19921;-84
2023/01/02 01:15:06;;;;;;;;;;;10.40;99.90;;;;;;5068906;28;19924;-84
2023/01/02 01:17:32;;;;;;;;;;;10.40;99.90;;;;;;5057775;28;19962;-84
2023/01/02 01:19:58;;;;;;;;;;;10.40;99.90;;;;;;5087964;28;20011;-85
2023/01/02 01:22:23;;;;;;;;;;;10.50;99.90;;;;;;5069613;28;19921;-84
2023/01/02 01:24:49;;;;;;;;;;;10.60;99.90;;;;;;5072298;28;20475;-85
2023/01/02 01:27:15;;;;;;;;;;;10.60;99.90;;;;;;5053562;28;19928;-85
2023/01/02 01:29:40;;;;;;;;;;;10.60;99.90;;;;;;5051488;28;20220;-85
2023/01/02 01:32:06;;;;;;;;;;;10.60;99.90;;;;;;5084452;28;19924;-85
2023/01/02 01:34:32;;;;;;;;;;;10.70;99.90;;;;;;5057833;28;19933;-85
2023/01/02 01:36:57;;;;;;;;;;;10.60;99.90;;;;;;5071835;28;19946;-85
2023/01/02 01:39:23;;;;;;;;;;;10.70;99.90;;;;;;5055075;28;19924;-84
2023/01/02 01:41:48;;;;;;;;;;;10.70;99.90;;;;;;5073338;28;19928;-85
2023/01/02 01:44:33;;;;;;;;;;;10.80;99.90;;;;;;5085659;28;19920;-85
2023/01/02 01:46:58;;;;;;;;;;;10.80;99.90;;;;;;5088653;28;20648;-85
2023/01/02 01:49:25;;;;;;;;;;;10.70;99.90;;;;;;5073552;28;19983;-85
2023/01/02 01:51:51;;;;;;;;;;;10.80;99.90;;;;;;5088105;28;19924;-85
2023/01/02 01:54:19;;;;;;;;;;;10.70;99.90;;;;;;5087312;28;19927;-85
2023/01/02 01:56:47;;;;;;;;;;;10.80;99.90;;;;;;5069069;28;19931;-84
2023/01/02 01:59:13;;;;;;;;;;;10.80;99.90;;;;;;5082768;28;19921;-84
2023/01/02 02:01:40;;;;;;;;;;;10.70;99.90;;;;;;5093233;28;19945;-85
2023/01/02 02:04:06;;;;;;;;;;;10.70;99.90;;;;;;5079073;28;20194;-85
2023/01/02 02:06:31;;;;;;;;;;;10.70;99.90;;;;;;5072877;28;20625;-85
2023/01/02 02:09:03;;;;;;;;;;;10.70;99.90;;;;;;5083750;28;19927;-85
2023/01/02 02:11:29;;;;;;;;;;;10.70;99.90;;;;;;5085663;28;19924;-84
2023/01/02 02:13:57;;;;;;;;;;;10.70;99.90;;;;;;5085474;28;20285;-85
2023/01/02 02:16:27;;;;;;;;;;;10.70;99.90;;;;;;5083988;28;19931;-84
2023/01/02 02:19:25;;;;;;;;;;;10.70;99.90;;;;;;5068457;28;19963;-84
2023/01/02 02:21:53;;;;;;;;;;;10.70;99.90;;;;;;5081628;28;19920;-84
2023/01/02 02:24:38;;;;;;;;;;;10.70;99.90;;;;;;5089328;28;20281;-85
2023/01/02 02:27:06;;;;;;;;;;;10.80;99.90;;;;;;5086557;28;19921;-85
2023/01/02 02:29:51;;;;;;;;;;;10.70;99.90;;;;;;5089722;28;19931;-84
2023/01/02 02:32:29;;;;;;;;;;;10.80;99.90;;;;;;5102493;28;19934;-85
2023/01/02 02:35:17;;;;;;;;;;;10.90;99.90;;;;;;5085396;28;19932;-85
2023/01/02 02:37:49;;;;;;;;;;;10.90;99.90;;;;;;5088246;28;20258;-85
2023/01/02 02:40:18;;;;;;;;;;;10.90;99.90;;;;;;5085739;28;19927;-85
2023/01/02 02:43:04;;;;;;;;;;;10.90;99.90;;;;;;5089414;28;19927;-85
2023/01/02 02:45:29;;;;;;;;;;;10.90;99.90;;;;;;5070875;28;19968;-85
2023/01/02 02:48:08;;;;;;;;;;;11.00;99.90;;;;;;5097389;28;19920;-84
2023/01/02 02:50:38;;;;;;;;;;;11.00;99.90;;;;;;5083454;28;19924;-84
2023/01/02 02:53:19;;;;;;;;;;;11.00;99.90;;;;;;5064284;28;19928;-85
2023/01/02 02:55:50;;;;;;;;;;;11.00;99.90;;;;;;5087953;28;19931;-85
2023/01/02 02:58:17;;;;;;;;;;;11.00;99.90;;;;;;5074268;28;19920;-84
2023/01/02 03:00:43;;;;;;;;;;;11.00;99.90;;;;;;5072364;28;19990;-85
2023/01/02 03:03:15;;;;;;;;;;;11.00;99.90;;;;;;5074047;28;19924;-85
2023/01/02 03:05:42;;;;;;;;;;;11.10;99.90;;;;;;5073655;28;19920;-85
2023/01/02 03:08:10;;;;;;;;;;;11.10;99.90;;;;;;5088275;28;20483;-85
2023/01/02 03:10:45;;;;;;;;;;;11.10;99.90;;;;;;5071753;28;19971;-85
2023/01/02 03:13:30;;;;;;;;;;;11.10;99.90;;;;;;5084416;28;19931;-85
2023/01/02 03:16:01;;;;;;;;;;;11.10;99.90;;;;;;5083697;28;19936;-85
2023/01/02 03:18:59;;;;;;;;;;;11.10;99.90;;;;;;5083280;28;19920;-85
2023/01/02 03:21:31;;;;;;;;;;;11.10;99.90;;;;;;5026369;28;20411;-85
2023/01/02 03:23:59;;;;;;;;;;;11.10;99.90;;;;;;5087021;28;20292;-84
2023/01/02 03:26:27;;;;;;;;;;;11.00;99.90;;;;;;5088516;28;20453;-85
2023/01/02 03:28:54;;;;;;;;;;;11.00;99.90;;;;;;5086791;28;19942;-85
2023/01/02 03:31:22;;;;;;;;;;;11.00;99.90;;;;;;5089385;28;20382;-84
2023/01/02 03:33:53;;;;;;;;;;;11.00;99.90;;;;;;5087517;28;19967;-85
2023/01/02 03:36:22;;;;;;;;;;;11.00;99.90;;;;;;5071569;28;19939;-85
2023/01/02 03:39:01;;;;;;;;;;;10.90;99.90;;;;;;5087938;28;20262;-85
2023/01/02 03:41:29;;;;;;;;;;;11.00;99.90;;;;;;5084992;28;19977;-85
2023/01/02 03:43:55;;;;;;;;;;;10.90;99.90;;;;;;5083351;28;19920;-85
2023/01/02 03:46:21;;;;;;;;;;;11.00;99.90;;;;;;5087299;28;19924;-85
2023/01/02 03:48:55;;;;;;;;;;;10.90;99.90;;;;;;5085599;28;19924;-85
2023/01/02 03:51:21;;;;;;;;;;;10.90;99.90;;;;;;5084461;28;19971;-85
2023/01/02 03:53:49;;;;;;;;;;;11.00;99.90;;;;;;5084546;28;19920;-85
2023/01/02 03:56:24;;;;;;;;;;;11.00;99.90;;;;;;5084457;28;20042;-85
2023/01/02 03:58:59;;;;;;;;;;;11.00;99.90;;;;;;5085321;28;19924;-85
2023/01/02 04:01:33;;;;;;;;;;;11.00;99.90;;;;;;5081806;28;19920;-85
2023/01/02 04:04:07;;;;;;;;;;;10.80;99.90;;;;;;5102976;28;20083;-85
2023/01/02 04:06:37;;;;;;;;;;;11.10;99.90;;;;;;5068355;28;19970;-86
2023/01/02 04:09:06;;;;;;;;;;;11.10;99.90;;;;;;5069485;28;19939;-85
2023/01/02 04:11:32;;;;;;;;;;;11.10;99.90;;;;;;5084778;28;19928;-85
2023/01/02 04:14:00;;;;;;;;;;;11.10;99.90;;;;;;5082879;28;19932;-85
2023/01/02 04:16:28;;;;;;;;;;;11.10;99.90;;;;;;5087634;28;19954;-85
2023/01/02 04:18:57;;;;;;;;;;;11.10;99.90;;;;;;5069664;28;19943;-85
2023/01/02 04:21:25;;;;;;;;;;;11.10;99.90;;;;;;5074077;28;20372;-85
2023/01/02 04:23:59;;;;;;;;;;;11.10;99.90;;;;;;5066659;28;20452;-85
2023/01/02 04:26:45;;;;;;;;;;;11.10;99.90;;;;;;5087752;28;19920;-85
2023/01/02 04:29:11;;;;;;;;;;;11.20;99.90;;;;;;5085281;28;19920;-85
2023/01/02 04:31:39;;;;;;;;;;;11.20;99.90;;;;;;5084363;28;19942;-85
2023/01/02 04:34:08;;;;;;;;;;;11.20;99.90;;;;;;5072613;28;19989;-85
2023/01/02 04:36:37;;;;;;;;;;;11.20;99.90;;;;;;5079944;28;19982;-85
2023/01/02 04:39:02;;;;;;;;;;;11.20;99.90;;;;;;5103324;28;19955;-84
2023/01/02 04:41:28;;;;;;;;;;;11.20;99.90;;;;;;5085484;28;20341;-85
2023/01/02 04:43:54;;;;;;;;;;;11.30;99.90;;;;;;5075604;28;20732;-84
2023/01/02 04:46:20;;;;;;;;;;;11.30;99.90;;;;;;5088715;28;19927;-85
2023/01/02 04:48:45;;;;;;;;;;;11.30;99.90;;;;;;5069462;28;19921;-85
2023/01/02 04:51:11;;;;;;;;;;;11.40;99.90;;;;;;5054180;28;19927;-85
2023/01/02 04:53:36;;;;;;;;;;;11.40;99.90;;;;;;5085131;28;19951;-85
2023/01/02 04:56:02;;;;;;;;;;;11.40;99.90;;;;;;5071693;28;19972;-85
2023/01/02 04:58:27;;;;;;;;;;;11.40;99.90;;;;;;5056026;28;19928;-85
2023/01/02 05:00:53;;;;;;;;;;;11.40;99.90;;;;;;5073413;28;19970;-85
2023/01/02 05:03:19;;;;;;;;;;;11.50;99.90;;;;;;5075767;28;19924;-84
2023/01/02 05:05:44;;;;;;;;;;;11.50;99.90;;;;;;5056318;28;19921;-84
2023/01/02 05:08:10;;;;;;;;;;;11.50;99.90;;;;;;5082349;28;20379;-84
2023/01/02 05:10:36;;;;;;;;;;;11.40;99.90;;;;;;5070097;28;20103;-85
2023/01/02 05:13:01;;;;;;;;;;;11.40;99.90;;;;;;5069997;28;19924;-85
2023/01/02 05:15:27;;;;;;;;;;;11.40;99.90;;;;;;5083662;28;19935;-85
2023/01/02 05:17:52;;;;;;;;;;;11.50;99.90;;;;;;5069689;28;19924;-85
2023/01/02 05:20:18;;;;;;;;;;;11.40;99.90;;;;;;5054938;28;19920;-85
2023/01/02 05:25:30;;;;;;;;;;;11.60;99.90;;;;;;5069969;28;19931;-85
2023/01/02 05:27:56;;;;;;;;;;;11.50;99.90;;;;;;5067452;28;19920;-85
2023/01/02 05:30:22;;;;;;;;;;;11.50;99.90;;;;;;5052217;28;19920;-85
2023/01/02 05:32:47;;;;;;;;;;;11.50;99.90;;;;;;5070260;28;19920;-84
2023/01/02 05:35:13;;;;;;;;;;;11.60;99.90;;;;;;5057847;28;20012;-85
2023/01/02 05:37:39;;;;;;;;;;;11.50;99.90;;;;;;5051769;28;19928;-85
2023/01/02 05:40:05;;;;;;;;;;;11.50;99.90;;;;;;5068760;28;20423;-86
2023/01/02 05:42:30;;;;;;;;;;;11.50;99.90;;;;;;5066955;28;19920;-85
2023/01/02 05:44:56;;;;;;;;;;;11.50;99.90;;;;;;5070908;28;19927;-84
2023/01/02 05:47:21;;;;;;;;;;;11.50;99.90;;;;;;5067672;28;19950;-85
2023/01/02 05:49:47;;;;;;;;;;;11.40;99.90;;;;;;5072007;28;19920;-84
2023/01/02 05:52:12;;;;;;;;;;;11.40;99.90;;;;;;5069353;28;20766;-85
2023/01/02 05:54:38;;;;;;;;;;;11.40;99.90;;;;;;5085861;28;20495;-84
2023/01/02 05:57:03;;;;;;;;;;;11.40;99.90;;;;;;5070946;28;19926;-84
2023/01/02 05:59:29;;;;;;;;;;;11.40;99.90;;;;;;5053956;28;19967;-85
2023/01/02 06:01:55;;;;;;;;;;;11.40;99.90;;;;;;5071172;28;20347;-85
2023/01/02 06:04:20;;;;;;;;;;;11.50;99.90;;;;;;5071568;28;19995;-85
2023/01/02 06:06:46;;;;;;;;;;;11.50;99.90;;;;;;5051680;28;19931;-84
2023/01/02 06:09:12;;;;;;;;;;;11.50;99.90;;;;;;5065795;28;19920;-84
2023/01/02 06:11:38;;;;;;;;;;;11.50;99.90;;;;;;5073561;28;20285;-84
2023/01/02 06:14:03;;;;;;;;;;;11.50;99.90;;;;;;5069449;28;19924;-83
2023/01/02 06:16:29;;;;;;;;;;;11.50;99.90;;;;;;5089732;28;20077;-84
2023/01/02 06:18:55;;;;;;;;;;;11.50;99.90;;;;;;5083643;28;19921;-85
2023/01/02 06:21:21;;;;;;;;;;;11.50;99.90;;;;;;5083766;28;20330;-84
2023/01/02 06:23:47;;;;;;;;;;;11.50;99.90;;;;;;5087042;28;19966;-85
2023/01/02 06:26:12;;;;;;;;;;;11.50;99.90;;;;;;5065601;28;20377;-85
2023/01/02 06:28:38;;;;;;;;;;;11.50;99.90;;;;;;5067965;28;19927;-85
2023/01/02 06:31:05;;;;;;;;;;;11.50;99.90;;;;;;5081729;28;20345;-85
2023/01/02 06:33:31;;;;;;;;;;;11.50;99.90;;;;;;5064651;28;19928;-85
2023/01/02 06:36:00;;;;;;;;;;;11.50;99.90;;;;;;5083443;28;20420;-85
2023/01/02 06:38:26;;;;;;;;;;;11.60;99.90;;;;;;5063640;28;20364;-85
2023/01/02 06:40:56;;;;;;;;;;;11.60;99.90;;;;;;5048344;28;19927;-85
2023/01/02 06:43:22;;;;;;;;;;;11.60;99.90;;;;;;5055380;28;19968;-85
2023/01/02 06:45:48;;;;;;;;;;;11.60;99.90;;;;;;5076696;28;20229;-85
2023/01/02 06:48:13;;;;;;;;;;;11.60;99.90;;;;;;5074945;28;19920;-85
2023/01/02 06:50:39;;;;;;;;;;;11.60;99.90;;;;;;5070027;28;19930;-85
2023/01/02 06:53:04;;;;;;;;;;;11.50;99.90;;;;;;5058693;28;19981;-85
2023/01/02 06:55:30;;;;;;;;;;;11.60;99.90;;;;;;5083841;28;20288;-85
2023/01/02 06:57:56;;;;;;;;;;;11.60;99.90;;;;;;5069697;28;19986;-85
2023/01/02 07:00:21;;;;;;;;;;;11.50;99.90;;;;;;5080772;28;19924;-85
2023/01/02 07:02:47;;;;;;;;;;;11.60;99.90;;;;;;5048790;28;20019;-85
2023/01/02 07:05:12;;;;;;;;;;;11.50;99.90;;;;;;5046152;28;20422;-85
2023/01/02 07:07:38;;;;;;;;;;;11.50;99.90;;;;;;5047225;28;19928;-85
2023/01/02 07:10:04;;;;;;;;;;;11.60;99.90;;;;;;5083301;28;19970;-86
2023/01/02 07:12:29;;;;;;;;;;;11.60;99.90;;;;;;5046777;28;20361;-86
2023/01/02 07:14:55;;;;;;;;;;;11.50;99.90;;;;;;5090306;28;20132;-86
2023/01/02 07:17:21;;;;;;;;;;;11.50;99.90;;;;;;5068147;28;19928;-86
2023/01/02 07:19:46;;;;;;;;;;;11.50;99.90;;;;;;5068089;28;20131;-86
2023/01/02 07:22:12;;;;;;;;;;;11.50;99.90;;;;;;5069401;28;20395;-86
2023/01/02 07:24:37;;;;;;;;;;;11.50;99.90;;;;;;5049060;28;19955;-86
2023/01/02 07:27:03;;;;;;;;;;;11.50;99.90;;;;;;5070385;28;19920;-87
2023/01/02 07:29:28;;;;;;;;;;;11.50;99.90;;;;;;5057110;28;19991;-85
2023/01/02 07:31:54;;;;;;;;;;;11.50;99.90;;;;;;5068964;28;20305;-85
2023/01/02 07:34:20;;;;;;;;;;;11.40;99.90;;;;;;5069188;28;19924;-86
2023/01/02 07:36:45;;;;;;;;;;;11.40;99.90;;;;;;5070723;28;19976;-85
2023/01/02 07:39:11;;;;;;;;;;;11.40;99.90;;;;;;5079780;28;20308;-86
2023/01/02 07:41:36;;;;;;;;;;;11.40;99.90;;;;;;5065050;28;19997;-86
2023/01/02 07:44:02;;;;;;;;;;;11.40;99.90;;;;;;5043672;28;19924;-86
2023/01/02 07:46:27;;;;;;;;;;;11.30;99.90;;;;;;5085036;28;19928;-85
2023/01/02 07:48:53;;;;;;;;;;;11.20;99.90;;;;;;5052554;28;19920;-86
2023/01/02 07:51:19;;;;;;;;;;;11.10;99.90;;;;;;5049613;28;19927;-85
2023/01/02 07:53:44;;;;;;;;;;;11.00;99.90;;;;;;5063133;28;20419;-86
2023/01/02 07:56:10;;;;;;;;;;;10.90;99.90;;;;;;5051830;28;19923;-86
2023/01/02 07:58:36;;;;;;;;;;;10.80;99.90;;;;;;5055943;28;20003;-86
2023/01/02 08:01:06;;;;;;;;;;;10.70;99.90;;;;;;5084819;28;19928;-87
2023/01/02 08:03:32;;;;;;;;;;;10.50;99.90;;;;;;5072791;28;19920;-87
2023/01/02 08:06:02;;;;;;;;;;;10.40;99.90;;;;;;5077434;28;19920;-87
2023/01/02 08:08:28;;;;;;;;;;;10.30;99.90;;;;;;5065291;28;19960;-87
2023/01/02 08:10:53;;;;;;;;;;;10.30;99.90;;;;;;5067536;28;19955;-87
2023/01/02 08:13:19;;;;;;;;;;;10.20;99.90;;;;;;5052586;28;19931;-88
2023/01/02 08:15:45;;;;;;;;;;;10.20;99.90;;;;;;5074460;28;20463;-87
2023/01/02 08:18:10;;;;;;;;;;;10.10;99.90;;;;;;5077737;28;19992;-86
2023/01/02 08:20:36;;;;;;;;;;;9.90;99.90;;;;;;5059824;28;19920;-86
2023/01/02 08:23:02;;;;;;;;;;;9.90;99.90;;;;;;5057557;28;19973;-88
2023/01/02 08:25:27;;;;;;;;;;;9.80;99.90;;;;;;5073982;28;20382;-88
2023/01/02 08:27:53;;;;;;;;;;;9.80;99.90;;;;;;5053784;28;19920;-87
2023/01/02 08:30:18;;;;;;;;;;;9.70;99.90;;;;;;5057666;28;20304;-87
2023/01/02 08:32:44;;;;;;;;;;;9.60;99.90;;;;;;5069914;28;20334;-86
2023/01/02 08:35:10;;;;;;;;;;;9.60;99.90;;;;;;5072469;28;20015;-88
2023/01/02 08:37:35;;;;;;;;;;;9.50;99.90;;;;;;5070369;28;19920;-88
2023/01/02 08:40:01;;;;;;;;;;;9.50;99.90;;;;;;5072130;28;19927;-87
2023/01/02 08:42:26;;;;;;;;;;;9.50;99.90;;;;;;5075702;28;19927;-87
2023/01/02 08:44:52;;;;;;;;;;;9.50;99.90;;;;;;5058870;28;19980;-85
2023/01/02 08:47:18;;;;;;;;;;;9.40;99.90;;;;;;5056330;28;19920;-86
2023/01/02 08:49:43;;;;;;;;;;;9.40;99.90;;;;;;5086427;28;19931;-90
2023/01/02 08:52:09;;;;;;;;;;;9.30;99.90;;;;;;5068976;28;19970;-86
2023/01/02 08:54:35;;;;;;;;;;;9.20;99.90;;;;;;5086020;28;20010;-88
2023/01/02 08:57:00;;;;;;;;;;;9.20;99.90;;;;;;5084632;28;19920;-88
2023/01/02 08:59:26;;;;;;;;;;;9.20;99.90;;;;;;5070521;28;20417;-87
2023/01/02 09:01:52;;;;;;;;;;;9.10;99.90;;;;;;5056100;28;19947;-88
2023/01/02 09:04:18;;;;;;;;;;;9.10;99.90;;;;;;5046251;28;20385;-88
2023/01/02 09:06:43;;;;;;;;;;;9.00;99.90;;;;;;5071214;28;19963;-89
2023/01/02 09:09:10;;;;;;;;;;;8.90;99.90;;;;;;5054679;28;19963;-87
2023/01/02 09:11:36;;;;;;;;;;;8.80;99.90;;;;;;5064784;28;19919;-87
2023/01/02 09:14:03;;;;;;;;;;;8.80;99.90;;;;;;5088084;28;19924;-87
2023/01/02 09:16:28;;;;;;;;;;;8.70;99.90;;;;;;5054033;28;19970;-87
2023/01/02 09:18:55;;;;;;;;;;;8.60;99.90;;;;;;5068689;28;19971;-87
2023/01/02 09:21:21;;;;;;;;;;;8.60;99.90;;;;;;5073201;28;19977;-87
2023/01/02 09:23:46;;;;;;;;;;;8.50;99.90;;;;;;5089744;28;19921;-87
2023/01/02 09:26:12;;;;;;;;;;;8.50;99.90;;;;;;5087130;28;19920;-87
2023/01/02 09:28:38;;;;;;;;;;;8.50;99.90;;;;;;5065676;28;20065;-88
2023/01/02 09:31:04;;;;;;;;;;;8.50;99.90;;;;;;5062865;28;20420;-89
2023/01/02 09:33:30;;;;;;;;;;;8.40;99.90;;;;;;5066942;28;19920;-87
2023/01/02 09:35:59;;;;;;;;;;;8.50;99.90;;;;;;5080019;28;19981;-88
2023/01/02 09:38:24;;;;;;;;;;;8.40;99.90;;;;;;5061011;28;19935;-84
2023/01/02 09:40:52;;;;;;;;;;;8.40;99.90;;;;;;5085648;28;20415;-84
2023/01/02 09:43:26;;;;;;;;;;;8.40;99.90;;;;;;5060246;28;20388;-84
2023/01/02 09:45:54;;;;;;;;;;;8.40;99.90;;;;;;5064973;28;19927;-88
2023/01/02 09:48:21;;;;;;;;;;;8.40;99.90;;;;;;5057039;28;20204;-87
2023/01/02 09:50:48;;;;;;;;;;;8.40;99.90;;;;;;5061187;28;19931;-88
2023/01/02 09:53:14;;;;;;;;;;;8.40;99.90;;;;;;5071655;28;19935;-89
2023/01/02 09:55:44;;;;;;;;;;;8.40;99.90;;;;;;5044413;28;19928;-90
2023/01/02 09:58:48;;;;;;;;;;;8.30;99.90;;;;;;5060867;28;19919;-90
2023/01/02 10:01:36;;;;;;;;;;;8.30;99.90;;;;;;4979736;28;19925;-89
2023/01/02 10:04:20;;;;;;;;;;;8.30;99.90;;;;;;4979853;28;20401;-87
2023/01/02 10:06:45;;;;;;;;;;;8.30;99.90;;;;;;5045050;28;19928;-87
2023/01/02 10:09:14;;;;;;;;;;;8.30;99.90;;;;;;5061974;28;19951;-88
2023/01/02 10:11:58;;;;;;;;;;;8.20;99.90;;;;;;5055161;28;19936;-87
2023/01/02 10:14:37;;;;;;;;;;;8.30;99.90;;;;;;5066177;28;19957;-87
2023/01/02 10:17:04;;;;;;;;;;;8.30;99.90;;;;;;5058188;28;19927;-87
2023/01/02 10:19:30;;;;;;;;;;;8.30;99.90;;;;;;5060809;28;19923;-87
2023/01/02 10:21:58;;;;;;;;;;;8.30;99.90;;;;;;5060614;28;20292;-86
2023/01/02 10:24:37;;;;;;;;;;;8.30;99.90;;;;;;5059708;28;20510;-85
2023/01/02 10:27:03;;;;;;;;;;;8.30;99.90;;;;;;5070929;28;19920;-85
2023/01/02 10:29:32;;;;;;;;;;;8.20;99.90;;;;;;5060537;28;20057;-84
2023/01/02 10:31:59;;;;;;;;;;;8.30;99.90;;;;;;5066881;28;20516;-84
2023/01/02 10:34:28;;;;;;;;;;;8.30;99.90;;;;;;5061079;28;19991;-83
2023/01/02 10:36:54;;;;;;;;;;;8.30;99.90;;;;;;5071348;28;19928;-85
2023/01/02 10:39:21;;;;;;;;;;;8.30;99.90;;;;;;5068108;28;19938;-85
2023/01/02 10:41:52;;;;;;;;;;;8.30;99.90;;;;;;5070325;28;19920;-86
2023/01/02 10:44:31;;;;;;;;;;;8.30;99.90;;;;;;5050428;28;19928;-86
2023/01/02 10:46:58;;;;;;;;;;;8.30;99.90;;;;;;5069379;28;19968;-86
2023/01/02 10:49:24;;;;;;;;;;;8.30;99.90;;;;;;5069021;28;19928;-86
2023/01/02 10:52:10;;;;;;;;;;;8.30;99.90;;;;;;5067826;28;19924;-86
2023/01/02 10:55:02;;;;;;;;;;;8.30;99.90;;;;;;5056508;28;19993;-85
2023/01/02 10:57:34;;;;;;;;;;;8.30;99.90;;;;;;5064331;28;19975;-86
2023/01/02 11:00:00;;;;;;;;;;;8.30;99.90;;;;;;5069429;28;19928;-86
2023/01/02 11:02:35;;;;;;;;;;;8.30;99.90;;;;;;5053495;28;20007;-86
2023/01/02 11:05:01;;;;;;;;;;;8.30;99.90;;;;;;5061431;28;20383;-88
2023/01/02 11:07:30;;;;;;;;;;;8.30;99.90;;;;;;5059402;28;19934;-89
2023/01/02 11:09:56;;;;;;;;;;;8.40;99.90;;;;;;5070178;28;19919;-89
2023/01/02 11:12:22;;;;;;;;;;;8.40;99.90;;;;;;5043134;28;19928;-89
2023/01/02 11:14:48;;;;;;;;;;;8.40;99.90;;;;;;5059557;28;19938;-89
2023/01/02 11:17:15;;;;;;;;;;;8.40;99.90;;;;;;5044621;28;20273;-87
2023/01/02 11:19:59;;;;;;;;;;;8.50;99.90;;;;;;5070873;28;19919;-90
2023/01/02 11:22:33;;;;;;;;;;;8.50;99.90;;;;;;5056020;28;19928;-89
2023/01/02 11:25:00;;;;;;;;;;;8.60;99.90;;;;;;5057049;28;19930;-85
2023/01/02 11:27:30;;;;;;;;;;;8.60;99.90;;;;;;5057539;28;19986;-86
2023/01/02 11:29:56;;;;;;;;;;;8.50;99.90;;;;;;5059155;28;20392;-87
2023/01/02 11:32:24;;;;;;;;;;;8.60;99.90;;;;;;5054586;28;19927;-87
2023/01/02 11:34:58;;;;;;;;;;;8.60;99.90;;;;;;5053762;28;19984;-87
2023/01/02 11:37:24;;;;;;;;;;;8.60;99.90;;;;;;5060415;28;19998;-86
2023/01/02 11:40:15;;;;;;;;;;;8.60;99.90;;;;;;5040814;28;19934;-87
2023/01/02 11:45:31;;;;;;;;;;;8.60;99.90;;;;;;5085813;28;19959;-86
2023/01/02 11:47:59;;;;;;;;;;;8.70;99.90;;;;;;5067475;28;19924;-86
2023/01/02 11:50:26;;;;;;;;;;;8.70;99.90;;;;;;5067192;28;19959;-85
2023/01/02 11:53:10;;;;;;;;;;;8.70;99.90;;;;;;5068830;28;19928;-85
2023/01/02 11:55:36;;;;;;;;;;;8.70;99.90;;;;;;5064584;28;19932;-85
2023/01/02 11:58:01;;;;;;;;;;;8.60;99.90;;;;;;5085631;28;19930;-82
2023/01/02 12:00:32;;;;;;;;;;;8.60;99.90;;;;;;5065372;28;20414;-83
2023/01/02 12:03:18;;;;;;;;;;;8.60;99.90;;;;;;5067897;28;19923;-83
2023/01/02 12:05:49;;;;;;;;;;;8.50;99.90;;;;;;5060219;28;20015;-84
2023/01/02 12:08:34;;;;;;;;;;;8.50;99.90;;;;;;5067785;28;20006;-83
2023/01/02 12:11:16;;;;;;;;;;;8.50;99.90;;;;;;5070251;28;20014;-83
2023/01/02 12:13:45;;;;;;;;;;;8.50;99.90;;;;;;5057197;28;19927;-83
2023/01/02 12:16:22;;;;;;;;;;;8.50;99.90;;;;;;5058904;28;19932;-87
2023/01/02 12:19:07;;;;;;;;;;;8.60;99.90;;;;;;5068954;28;19928;-86
2023/01/02 12:21:51;;;;;;;;;;;8.60;99.90;;;;;;5067182;28;19919;-86
2023/01/02 12:24:44;;;;;;;;;;;8.60;99.90;;;;;;5072221;28;19927;-85
2023/01/02 12:27:13;;;;;;;;;;;8.50;99.90;;;;;;5071263;28;20298;-83
2023/01/02 12:29:58;;;;;;;;;;;8.50;99.90;;;;;;5053876;28;20011;-82
2023/01/02 12:32:23;;;;;;;;;;;8.50;99.90;;;;;;5055381;28;19950;-83
2023/01/02 12:34:56;;;;;;;;;;;8.50;99.90;;;;;;5060674;28;20490;-83
2023/01/02 12:37:27;;;;;;;;;;;8.50;99.90;;;;;;5075007;28;19967;-82
2023/01/02 12:39:58;;;;;;;;;;;8.50;99.90;;;;;;5075397;28;19928;-83
2023/01/02 12:42:24;;;;;;;;;;;8.50;99.90;;;;;;5078153;28;19927;-83
2023/01/02 12:44:54;;;;;;;;;;;8.50;99.90;;;;;;5072589;28;19920;-81
2023/01/02 12:47:25;;;;;;;;;;;8.50;99.90;;;;;;5087571;28;20038;-81
2023/01/02 12:50:10;;;;;;;;;;;8.50;99.90;;;;;;5088785;28;19927;-80
2023/01/02 12:52:50;;;;;;;;;;;9.10;99.90;;;;;;5087184;28;19927;-80
2023/01/02 12:55:21;;;;;;;;;;;8.50;99.90;;;;;;5090804;28;20010;-80
2023/01/02 12:57:53;;;;;;;;;;;8.50;99.90;;;;;;5087220;28;19919;-81
2023/01/02 13:00:19;;;;;;;;;;;8.40;99.90;;;;;;5066133;28;19928;-80
2023/01/02 13:03:03;;;;;;;;;;;8.50;99.90;;;;;;5090452;28;19927;-80
2023/01/02 13:05:32;;;;;;;;;;;8.50;99.90;;;;;;5086281;28;20306;-80
2023/01/02 13:08:04;;;;;;;;;;;8.50;99.90;;;;;;5093727;28;19923;-80
2023/01/02 13:10:30;;;;;;;;;;;8.40;99.90;;;;;;5070079;28;19920;-80
2023/01/02 13:12:56;;;;;;;;;;;8.50;99.90;;;;;;5091758;28;19919;-80
2023/01/02 13:15:24;;;;;;;;;;;8.50;99.90;;;;;;5091473;28;20015;-80
2023/01/02 13:17:49;;;;;;;;;;;8.50;99.90;;;;;;5091307;28;19953;-79
2023/01/02 13:20:18;;;;;;;;;;;8.50;99.90;;;;;;5071960;28;19922;-80
2023/01/02 13:22:52;;;;;;;;;;;8.50;99.90;;;;;;5097017;28;19920;-80
2023/01/02 13:25:19;;;;;;;;;;;8.50;99.90;;;;;;5099245;28;19971;-81
2023/01/02 13:27:45;;;;;;;;;;;8.50;99.90;;;;;;5108019;28;19975;-81
2023/01/02 13:30:29;;;;;;;;;;;8.50;99.90;;;;;;5079902;28;19934;-81
2023/01/02 13:32:56;;;;;;;;;;;8.50;99.90;;;;;;5113876;28;19924;-81
2023/01/02 13:35:21;;;;;;;;;;;8.50;99.90;;;;;;5087633;28;20396;-82
2023/01/02 13:37:47;;;;;;;;;;;8.50;99.90;;;;;;5076031;28;19956;-81
2023/01/02 13:40:19;;;;;;;;;;;8.50;99.90;;;;;;5077337;28;20031;-81
2023/01/02 13:42:58;;;;;;;;;;;8.50;99.90;;;;;;5087340;28;19920;-81
2023/01/02 13:45:36;;;;;;;;;;;8.50;99.90;;;;;;5064222;28;19928;-81
2023/01/02 13:48:20;;;;;;;;;;;8.50;99.90;;;;;;5088308;28;20284;-82
2023/01/02 13:50:46;;;;;;;;;;;8.60;99.90;;;;;;5072705;28;19920;-81
2023/01/02 13:53:12;;;;;;;;;;;8.60;99.90;;;;;;5067946;28;19938;-81
2023/01/02 13:55:40;;;;;;;;;;;8.60;99.90;;;;;;5083372;28;20866;-81
2023/01/02 13:58:16;;;;;;;;;;;8.60;99.90;;;;;;5059886;28;19920;-81
2023/01/02 14:00:46;;;;;;;;;;;8.60;99.90;;;;;;5066841;28;19928;-81
2023/01/02 14:03:16;;;;;;;;;;;8.60;99.90;;;;;;5062750;28;19923;-81
2023/01/02 14:06:11;;;;;;;;;;;8.60;99.90;;;;;;5078786;28;19932;-81
2023/01/02 14:08:37;;;;;;;;;;;8.60;99.90;;;;;;5036216;28;19926;-81
2023/01/02 14:11:06;;;;;;;;;;;8.60;99.90;;;;;;5068686;28;19928;-81
2023/01/02 14:13:41;;;;;;;;;;;8.60;99.90;;;;;;5051691;28;19934;-81
2023/01/02 14:16:16;;;;;;;;;;;8.60;99.90;;;;;;5058416;28;20007;-81
2023/01/02 14:18:42;;;;;;;;;;;8.60;99.90;;;;;;5074633;28;20015;-81
2023/01/02 14:21:07;;;;;;;;;;;8.40;99.90;;;;;;5023636;28;20004;-80
2023/01/02 14:23:39;;;;;;;;;;;8.60;99.90;;;;;;5037265;28;20019;-80
2023/01/02 14:26:05;;;;;;;;;;;8.60;99.90;;;;;;5072578;28;20011;-81
2023/01/02 14:28:34;;;;;;;;;;;8.60;99.90;;;;;;5038670;28;19995;-80
2023/01/02 14:31:01;;;;;;;;;;;8.60;99.90;;;;;;5053032;28;19929;-80
2023/01/02 14:33:32;;;;;;;;;;;8.60;99.90;;;;;;5053583;28;19936;-80
2023/01/02 14:36:01;;;;;;;;;;;8.60;99.90;;;;;;5055642;28;19932;-80
2023/01/02 14:38:29;;;;;;;;;;;8.60;99.90;;;;;;5024932;28;19928;-88
2023/01/02 14:43:28;;;;;;;;;;;8.50;99.90;;;;;;5032638;28;20407;-94